createdAt,value
2018-12-09T00:00:21.335Z,12.27
2018-12-09T00:02:48.910Z,13.30
2018-12-09T00:05:16.382Z,13.20
2018-12-09T00:07:44.045Z,13.73
2018-12-09T00:10:11.590Z,13.73
2018-12-09T00:12:39.092Z,12.07
2018-12-09T00:15:06.641Z,13.43
2018-12-09T00:17:34.150Z,12.37
2018-12-09T00:20:01.648Z,13.50
2018-12-09T00:22:29.202Z,13.20
2018-12-09T00:24:57.438Z,12.83
2018-12-09T00:27:24.927Z,13.20
2018-12-09T00:29:52.486Z,13.57
2018-12-09T00:32:19.967Z,13.53
2018-12-09T00:34:47.508Z,13.07
2018-12-09T00:37:15.011Z,12.50
2018-12-09T00:39:42.523Z,11.70
2018-12-09T00:42:10.075Z,12.00
2018-12-09T00:44:38.091Z,11.10
2018-12-09T00:47:05.759Z,11.30
2018-12-09T00:49:33.367Z,11.23
2018-12-09T00:52:00.870Z,11.60
2018-12-09T00:54:28.374Z,10.67
2018-12-09T00:56:55.942Z,10.47
2018-12-09T00:59:23.442Z,10.27
2018-12-09T01:01:51.202Z,10.30
2018-12-09T01:04:18.833Z,11.53
2018-12-09T01:06:46.326Z,11.30
2018-12-09T01:09:13.831Z,10.67
2018-12-09T01:11:41.343Z,10.63
2018-12-09T01:14:08.846Z,10.97
2018-12-09T01:16:36.328Z,10.13
2018-12-09T01:19:04.227Z,10.63
2018-12-09T01:21:31.699Z,9.63
2018-12-09T01:23:59.267Z,10.13
2018-12-09T01:26:26.969Z,10.47
2018-12-09T01:28:54.522Z,10.17
2018-12-09T01:31:22.082Z,9.97
2018-12-09T01:33:49.594Z,9.77
2018-12-09T01:36:17.066Z,9.90
2018-12-09T01:38:44.786Z,10.43
2018-12-09T01:41:12.268Z,9.53
2018-12-09T01:43:39.775Z,9.80
2018-12-09T01:46:07.266Z,9.50
2018-12-09T01:48:34.775Z,10.47
2018-12-09T01:51:02.295Z,9.23
2018-12-09T01:53:37.648Z,9.40
2018-12-09T01:56:05.211Z,9.60
2018-12-09T01:58:32.722Z,10.13
2018-12-09T02:01:00.535Z,10.10
2018-12-09T02:03:28.107Z,9.30
2018-12-09T02:05:55.705Z,9.47
2018-12-09T02:08:23.200Z,9.53
2018-12-09T02:10:50.708Z,9.33
2018-12-09T02:13:18.205Z,9.13
2018-12-09T02:15:45.723Z,9.07
2018-12-09T02:18:13.224Z,8.60
2018-12-09T02:20:40.731Z,9.03
2018-12-09T02:23:08.219Z,8.60
2018-12-09T02:25:35.723Z,8.83
2018-12-09T02:28:04.056Z,9.53
2018-12-09T02:30:31.565Z,8.37
2018-12-09T02:32:59.164Z,9.03
2018-12-09T02:35:27.093Z,8.80
2018-12-09T02:37:54.580Z,8.83
2018-12-09T02:40:22.096Z,8.77
2018-12-09T02:42:49.589Z,8.80
2018-12-09T02:45:17.116Z,8.97
2018-12-09T02:47:44.729Z,8.10
2018-12-09T02:50:12.276Z,8.07
2018-12-09T02:52:39.913Z,8.40
2018-12-09T02:55:07.588Z,8.37
2018-12-09T02:57:35.164Z,8.13
2018-12-09T03:00:02.761Z,8.37
2018-12-09T03:02:30.300Z,8.70
2018-12-09T03:04:57.935Z,8.07
2018-12-09T03:07:25.440Z,8.50
2018-12-09T03:09:53.048Z,7.73
2018-12-09T03:12:20.543Z,7.30
2018-12-09T03:14:48.051Z,8.07
2018-12-09T03:17:15.620Z,7.70
2018-12-09T03:19:43.164Z,8.30
2018-12-09T03:22:10.732Z,8.27
2018-12-09T03:24:38.247Z,8.00
2018-12-09T03:27:05.804Z,7.57
2018-12-09T03:29:33.322Z,7.97
2018-12-09T03:32:00.834Z,7.30
2018-12-09T03:34:28.460Z,7.47
2018-12-09T03:36:55.950Z,7.80
2018-12-09T03:39:23.434Z,7.37
2018-12-09T03:41:51.008Z,7.10
2018-12-09T03:44:18.493Z,7.00
2018-12-09T03:46:46.026Z,7.10
2018-12-09T03:49:13.689Z,7.47
2018-12-09T03:51:41.978Z,7.67
2018-12-09T03:54:09.468Z,7.77
2018-12-09T03:56:36.991Z,7.23
2018-12-09T03:59:04.545Z,7.00
2018-12-09T04:01:32.056Z,6.70
2018-12-09T04:03:59.550Z,7.30
2018-12-09T04:06:27.075Z,8.10
2018-12-09T04:08:54.639Z,6.60
2018-12-09T04:11:22.232Z,7.70
2018-12-09T04:13:50.921Z,7.30
2018-12-09T04:16:18.709Z,7.27
2018-12-09T04:18:46.209Z,6.97
2018-12-09T04:21:13.716Z,6.87
2018-12-09T04:23:41.664Z,6.87
2018-12-09T04:26:09.193Z,6.40
2018-12-09T04:28:36.799Z,6.90
2018-12-09T04:31:04.412Z,7.00
2018-12-09T04:33:31.912Z,6.87
2018-12-09T04:35:59.814Z,6.43
2018-12-09T04:38:27.316Z,6.57
2018-12-09T04:40:54.884Z,6.67
2018-12-09T04:43:22.507Z,6.60
2018-12-09T04:45:50.002Z,6.23
2018-12-09T04:48:17.828Z,6.27
2018-12-09T04:50:45.325Z,6.30
2018-12-09T04:53:12.879Z,6.40
2018-12-09T04:55:40.452Z,6.43
2018-12-09T04:58:08.637Z,6.70
2018-12-09T05:00:49.580Z,6.53
2018-12-09T05:03:17.358Z,6.17
2018-12-09T05:05:44.909Z,6.27
2018-12-09T05:08:12.428Z,6.60
2018-12-09T05:10:40.428Z,6.07
2018-12-09T05:13:08.047Z,6.30
2018-12-09T05:15:35.540Z,6.00
2018-12-09T05:18:03.027Z,6.13
2018-12-09T05:20:30.576Z,6.13
2018-12-09T05:22:58.376Z,5.87
2018-12-09T05:25:25.892Z,6.00
2018-12-09T05:27:53.404Z,5.83
2018-12-09T05:30:21.981Z,5.73
2018-12-09T05:32:49.476Z,6.17
2018-12-09T05:35:17.365Z,6.50
2018-12-09T05:37:45.027Z,5.70
2018-12-09T05:40:12.549Z,5.67
2018-12-09T05:42:40.042Z,5.87
2018-12-09T05:45:07.623Z,6.17
2018-12-09T05:47:35.109Z,5.70
2018-12-09T05:50:02.700Z,5.37
2018-12-09T05:52:30.272Z,5.67
2018-12-09T05:54:57.796Z,5.60
2018-12-09T05:57:25.280Z,5.73
2018-12-09T05:59:52.848Z,5.73
2018-12-09T06:02:32.444Z,5.77
2018-12-09T06:04:59.960Z,5.57
2018-12-09T06:07:27.451Z,5.17
2018-12-09T06:09:54.968Z,5.20
2018-12-09T06:12:22.480Z,5.90
2018-12-09T06:14:49.967Z,5.33
2018-12-09T06:17:17.477Z,5.60
2018-12-09T06:19:44.963Z,5.30
2018-12-09T06:22:12.476Z,5.63
2018-12-09T06:24:40.275Z,5.07
2018-12-09T06:27:07.792Z,5.23
2018-12-09T06:29:36.212Z,5.20
2018-12-09T06:32:03.796Z,5.73
2018-12-09T06:34:31.281Z,5.43
2018-12-09T06:36:59.244Z,5.53
2018-12-09T06:39:26.740Z,5.00
2018-12-09T06:41:54.248Z,5.50
2018-12-09T06:44:21.724Z,5.60
2018-12-09T06:46:49.235Z,5.87
2018-12-09T06:49:17.037Z,4.90
2018-12-09T06:51:44.556Z,5.57
2018-12-09T06:54:12.047Z,5.60
2018-12-09T06:56:39.617Z,5.43
2018-12-09T06:59:07.184Z,5.13
2018-12-09T07:01:34.692Z,5.30
2018-12-09T07:04:02.257Z,5.57
2018-12-09T07:06:29.745Z,5.17
2018-12-09T07:08:57.259Z,5.27
2018-12-09T07:11:24.740Z,4.63
2018-12-09T07:13:52.320Z,5.03
2018-12-09T07:16:20.232Z,5.20
2018-12-09T07:18:47.745Z,5.00
2018-12-09T07:21:15.248Z,5.33
2018-12-09T07:23:42.761Z,5.33
2018-12-09T07:26:11.068Z,5.10
2018-12-09T07:28:38.580Z,4.70
2018-12-09T07:31:06.068Z,5.10
2018-12-09T07:33:33.576Z,5.03
2018-12-09T07:36:01.060Z,4.60
2018-12-09T07:38:28.623Z,5.50
2018-12-09T07:40:56.127Z,4.80
2018-12-09T07:43:23.740Z,5.17
2018-12-09T07:45:51.514Z,4.67
2018-12-09T07:48:19.008Z,4.87
2018-12-09T07:50:46.507Z,4.83
2018-12-09T07:53:13.988Z,5.03
2018-12-09T07:55:41.508Z,5.30
2018-12-09T07:58:08.991Z,4.90
2018-12-09T08:00:36.561Z,4.87
2018-12-09T08:03:05.990Z,5.00
2018-12-09T08:05:33.584Z,5.10
2018-12-09T08:08:01.086Z,4.60
2018-12-09T08:10:28.798Z,4.87
2018-12-09T08:12:56.340Z,5.10
2018-12-09T08:15:23.849Z,4.80
2018-12-09T08:17:52.035Z,5.20
2018-12-09T08:20:19.609Z,4.77
2018-12-09T08:22:47.099Z,4.80
2018-12-09T08:25:14.600Z,4.90
2018-12-09T08:27:42.079Z,4.60
2018-12-09T08:30:09.804Z,4.60
2018-12-09T08:32:37.307Z,4.77
2018-12-09T08:35:04.879Z,4.50
2018-12-09T08:37:32.803Z,4.60
2018-12-09T08:40:08.000Z,4.70
2018-12-09T08:42:35.720Z,4.90
2018-12-09T08:45:04.196Z,4.87
2018-12-09T08:47:33.415Z,5.00
2018-12-09T08:50:01.464Z,4.90
2018-12-09T08:52:29.052Z,5.03
2018-12-09T08:54:56.555Z,5.17
2018-12-09T08:57:24.451Z,7.60
2018-12-09T08:59:52.213Z,6.97
2018-12-09T09:02:19.728Z,7.30
2018-12-09T09:04:47.280Z,6.70
2018-12-09T09:07:16.189Z,6.90
2018-12-09T09:09:43.968Z,7.10
2018-12-09T09:12:11.752Z,7.60
2018-12-09T09:14:39.348Z,7.03
2018-12-09T09:17:08.312Z,7.50
2018-12-09T09:19:35.860Z,7.43
2018-12-09T09:22:03.385Z,6.40
2018-12-09T09:24:30.918Z,7.07
2018-12-09T09:26:58.533Z,7.10
2018-12-09T09:29:26.037Z,6.40
2018-12-09T09:31:53.647Z,8.33
2018-12-09T09:34:21.196Z,7.77
2018-12-09T09:36:48.875Z,7.83
2018-12-09T09:39:16.407Z,8.17
2018-12-09T09:41:43.998Z,8.13
2018-12-09T09:44:11.566Z,8.93
2018-12-09T09:46:39.080Z,7.60
2018-12-09T09:49:06.563Z,7.27
2018-12-09T09:51:34.089Z,6.50
2018-12-09T09:54:01.616Z,6.57
2018-12-09T09:56:29.115Z,6.60
2018-12-09T09:58:56.616Z,6.37
2018-12-09T10:01:24.119Z,6.27
2018-12-09T10:03:51.603Z,6.53
2018-12-09T10:06:19.168Z,6.97
2018-12-09T10:08:46.683Z,11.37
2018-12-09T10:11:14.188Z,13.93
2018-12-09T10:13:41.704Z,12.20
2018-12-09T10:16:09.215Z,12.60
2018-12-09T10:18:36.919Z,11.50
2018-12-09T10:21:04.408Z,11.73
2018-12-09T10:23:32.869Z,11.70
2018-12-09T10:26:00.360Z,11.83
2018-12-09T10:28:27.895Z,11.17
2018-12-09T10:30:55.419Z,11.20
2018-12-09T10:33:22.928Z,11.23
2018-12-09T10:35:50.726Z,10.97
2018-12-09T10:38:18.235Z,10.60
2018-12-09T10:40:47.668Z,10.20
2018-12-09T10:43:15.219Z,10.50
2018-12-09T10:45:42.748Z,10.20
2018-12-09T10:48:10.253Z,9.77
2018-12-09T10:50:37.751Z,9.63
2018-12-09T10:53:05.302Z,9.27
2018-12-09T10:55:32.783Z,9.53
2018-12-09T10:58:00.287Z,9.03
2018-12-09T11:00:33.573Z,9.23
2018-12-09T11:03:01.085Z,9.33
2018-12-09T11:05:28.573Z,8.93
2018-12-09T11:07:57.599Z,8.47
2018-12-09T11:10:25.701Z,8.73
2018-12-09T11:12:53.201Z,9.07
2018-12-09T11:15:20.689Z,8.00
2018-12-09T11:17:48.260Z,8.43
2018-12-09T11:20:16.221Z,8.00
2018-12-09T11:22:43.889Z,8.00
2018-12-09T11:25:11.508Z,7.87
2018-12-09T11:27:39.036Z,7.40
2018-12-09T11:30:07.340Z,7.80
2018-12-09T11:32:34.917Z,8.00
2018-12-09T11:35:02.408Z,6.67
2018-12-09T11:37:30.191Z,6.80
2018-12-09T11:39:59.959Z,6.30
2018-12-09T11:42:27.599Z,6.60
2018-12-09T11:44:55.116Z,7.20
2018-12-09T11:47:22.606Z,7.30
2018-12-09T11:49:50.173Z,6.93
2018-12-09T11:52:17.998Z,5.87
2018-12-09T11:54:45.532Z,6.30
2018-12-09T11:57:13.025Z,6.43
2018-12-09T11:59:40.596Z,5.43
2018-12-09T12:02:08.192Z,5.00
2018-12-09T12:04:35.696Z,5.10
2018-12-09T12:07:03.189Z,5.37
2018-12-09T12:09:30.762Z,4.87
2018-12-09T12:11:58.879Z,5.20
2018-12-09T12:14:26.476Z,5.33
2018-12-09T12:16:54.039Z,5.50
2018-12-09T12:19:21.556Z,6.20
2018-12-09T12:21:49.158Z,5.70
2018-12-09T12:24:16.720Z,6.23
2018-12-09T12:26:44.524Z,5.60
2018-12-09T12:29:12.349Z,5.30
2018-12-09T12:31:40.005Z,5.40
2018-12-09T12:34:07.528Z,5.30
2018-12-09T12:36:35.016Z,5.50
2018-12-09T12:39:02.524Z,5.50
2018-12-09T12:41:31.872Z,6.17
2018-12-09T12:43:59.671Z,5.77
2018-12-09T12:46:27.284Z,6.07
2018-12-09T12:48:54.971Z,6.43
2018-12-09T12:51:22.600Z,5.93
2018-12-09T12:53:50.371Z,6.90
2018-12-09T12:56:17.867Z,6.47
2018-12-09T12:58:45.386Z,7.30
2018-12-09T13:01:13.700Z,7.00
2018-12-09T13:03:41.409Z,7.97
2018-12-09T13:06:09.097Z,7.90
2018-12-09T13:08:36.856Z,7.70
2018-12-09T13:11:04.636Z,8.53
2018-12-09T13:13:32.208Z,9.60
2018-12-09T13:15:59.707Z,8.47
2018-12-09T13:18:27.201Z,11.03
2018-12-09T13:20:54.708Z,10.07
2018-12-09T13:23:22.228Z,9.77
2018-12-09T13:25:49.788Z,11.23
2018-12-09T13:28:17.367Z,7.53
2018-12-09T13:30:44.868Z,8.00
2018-12-09T13:33:12.352Z,8.67
2018-12-09T13:35:39.923Z,7.80
2018-12-09T13:38:07.428Z,8.70
2018-12-09T13:40:34.931Z,9.03
2018-12-09T13:43:02.420Z,10.43
2018-12-09T13:45:29.954Z,9.47
2018-12-09T13:47:57.827Z,9.23
2018-12-09T13:50:25.629Z,9.43
2018-12-09T13:52:53.112Z,9.43
2018-12-09T13:55:20.706Z,8.70
2018-12-09T13:57:48.204Z,10.80
2018-12-09T14:00:17.683Z,9.87
2018-12-09T14:02:45.172Z,10.30
2018-12-09T14:05:12.685Z,10.20
2018-12-09T14:07:40.466Z,11.20
2018-12-09T14:10:08.520Z,12.10
2018-12-09T14:12:36.015Z,10.50
2018-12-09T14:15:04.170Z,10.77
2018-12-09T14:17:31.712Z,8.67
2018-12-09T14:19:59.431Z,10.90
2018-12-09T14:22:26.936Z,9.70
2018-12-09T14:24:54.423Z,9.27
2018-12-09T14:27:23.371Z,9.63
2018-12-09T14:29:50.957Z,9.90
2018-12-09T14:32:19.228Z,9.30
2018-12-09T14:34:47.124Z,9.47
2018-12-09T14:37:14.735Z,8.60
2018-12-09T14:39:42.356Z,9.10
2018-12-09T14:42:10.445Z,8.33
2018-12-09T14:44:38.936Z,8.43
2018-12-09T14:47:07.495Z,8.10
2018-12-09T14:49:35.956Z,53.13
2018-12-09T14:52:03.548Z,18.80
2018-12-09T14:54:32.068Z,23.27
2018-12-09T14:57:00.162Z,24.90
2018-12-09T14:59:27.660Z,24.83
2018-12-09T15:01:55.241Z,24.27
2018-12-09T15:04:22.865Z,23.30
2018-12-09T15:06:50.380Z,22.80
2018-12-09T15:09:17.940Z,21.27
2018-12-09T15:11:45.531Z,22.47
2018-12-09T15:14:13.957Z,23.07
2018-12-09T15:16:42.647Z,20.80
2018-12-09T15:19:10.881Z,21.33
2018-12-09T15:21:38.479Z,21.63
2018-12-09T15:24:06.172Z,20.30
2018-12-09T15:26:35.239Z,19.23
2018-12-09T15:29:03.371Z,19.57
2018-12-09T15:31:33.136Z,19.60
2018-12-09T15:34:00.632Z,18.90
2018-12-09T15:36:28.143Z,18.47
2018-12-09T15:38:56.424Z,18.07
2018-12-09T15:41:23.915Z,19.07
2018-12-09T15:43:51.429Z,18.40
2018-12-09T15:46:18.989Z,17.57
2018-12-09T15:48:46.511Z,17.23
2018-12-09T15:51:14.544Z,16.93
2018-12-09T15:53:42.053Z,17.10
2018-12-09T15:56:09.544Z,16.57
2018-12-09T15:58:37.191Z,16.63
2018-12-09T16:01:04.695Z,15.23
2018-12-09T16:03:32.312Z,14.20
2018-12-09T16:05:59.827Z,15.83
2018-12-09T16:08:27.337Z,15.00
2018-12-09T16:10:55.189Z,14.90
2018-12-09T16:13:22.727Z,14.93
2018-12-09T16:15:50.274Z,13.67
2018-12-09T16:18:17.793Z,14.30
2018-12-09T16:20:45.292Z,14.17
2018-12-09T16:23:14.797Z,13.80
2018-12-09T16:25:42.337Z,13.47
2018-12-09T16:28:09.860Z,13.27
2018-12-09T16:30:37.354Z,12.73
2018-12-09T16:33:04.864Z,12.63
2018-12-09T16:35:32.359Z,13.50
2018-12-09T16:37:59.979Z,13.37
2018-12-09T16:40:27.490Z,13.27
2018-12-09T16:42:55.016Z,12.33
2018-12-09T16:45:22.509Z,12.40
2018-12-09T16:47:50.021Z,13.50
2018-12-09T16:50:18.129Z,11.70
2018-12-09T16:52:45.764Z,11.47
2018-12-09T16:55:13.305Z,11.93
2018-12-09T16:57:41.115Z,12.07
2018-12-09T17:00:08.760Z,13.20
2018-12-09T17:02:38.636Z,12.07
2018-12-09T17:05:06.532Z,11.70
2018-12-09T17:07:41.929Z,11.63
2018-12-09T17:10:05.430Z,11.83
2018-12-09T17:12:33.011Z,11.57
2018-12-09T17:15:00.525Z,11.07
2018-12-09T17:17:28.027Z,11.00
2018-12-09T17:19:55.539Z,11.63
2018-12-09T17:22:23.089Z,11.13
2018-12-09T17:24:50.602Z,10.20
2018-12-09T17:27:18.109Z,10.87
2018-12-09T17:29:45.639Z,10.40
2018-12-09T17:32:13.134Z,11.20
2018-12-09T17:34:40.764Z,10.13
2018-12-09T17:37:08.254Z,11.00
2018-12-09T17:39:35.780Z,9.63
2018-12-09T17:42:03.272Z,10.43
2018-12-09T17:44:30.875Z,10.17
2018-12-09T17:46:58.409Z,10.13
2018-12-09T17:49:26.160Z,10.93
2018-12-09T17:51:53.656Z,9.50
2018-12-09T17:54:21.160Z,9.23
2018-12-09T17:56:48.668Z,9.23
2018-12-09T17:59:16.185Z,9.43
2018-12-09T18:01:43.760Z,9.80
2018-12-09T18:04:11.265Z,9.07
2018-12-09T18:06:38.761Z,9.50
2018-12-09T18:09:06.356Z,9.70
2018-12-09T18:11:33.839Z,8.90
2018-12-09T18:14:01.385Z,12.97
2018-12-09T18:16:28.896Z,13.13
2018-12-09T18:18:56.420Z,14.20
2018-12-09T18:21:23.908Z,20.67
2018-12-09T18:23:52.626Z,32.70
2018-12-09T18:26:20.327Z,45.10
2018-12-09T18:28:47.896Z,47.77
2018-12-09T18:31:15.714Z,48.27
2018-12-09T18:33:43.304Z,44.63
2018-12-09T18:36:11.419Z,46.80
2018-12-09T18:38:39.185Z,45.23
2018-12-09T18:41:06.738Z,46.03
2018-12-09T18:43:34.279Z,45.57
2018-12-09T18:46:01.792Z,47.97
2018-12-09T18:48:29.707Z,45.53
2018-12-09T18:50:57.217Z,47.20
2018-12-09T18:53:24.956Z,50.40
2018-12-09T18:55:52.469Z,50.27
2018-12-09T18:58:19.956Z,51.20
2018-12-09T19:00:47.481Z,52.50
2018-12-09T19:03:15.480Z,49.73
2018-12-09T19:05:43.136Z,49.00
2018-12-09T19:08:11.308Z,48.40
2018-12-09T19:10:38.892Z,47.20
2018-12-09T19:13:06.392Z,46.93
2018-12-09T19:15:34.268Z,47.63
2018-12-09T19:18:02.142Z,46.63
2018-12-09T19:20:30.060Z,45.57
2018-12-09T19:22:58.214Z,45.97
2018-12-09T19:25:25.795Z,45.13
2018-12-09T19:27:53.283Z,44.63
2018-12-09T19:30:21.574Z,43.37
2018-12-09T19:32:49.489Z,43.70
2018-12-09T19:35:17.801Z,42.97
2018-12-09T19:37:45.307Z,42.23
2018-12-09T19:40:12.875Z,41.87
2018-12-09T19:42:40.396Z,41.80
2018-12-09T19:45:08.298Z,38.97
2018-12-09T19:47:36.108Z,40.40
2018-12-09T19:50:04.400Z,39.70
2018-12-09T19:52:31.952Z,39.30
2018-12-09T19:54:59.756Z,39.33
2018-12-09T19:57:27.481Z,38.87
2018-12-09T19:59:55.286Z,38.23
2018-12-09T20:02:22.948Z,39.23
2018-12-09T20:04:50.702Z,39.63
2018-12-09T20:07:18.276Z,37.60
2018-12-09T20:09:45.778Z,36.93
2018-12-09T20:12:13.608Z,37.00
2018-12-09T20:14:41.094Z,36.13
2018-12-09T20:17:08.604Z,34.77
2018-12-09T20:19:36.192Z,35.53
2018-12-09T20:22:03.823Z,36.70
2018-12-09T20:24:31.439Z,35.70
2018-12-09T20:26:59.750Z,35.17
2018-12-09T20:29:27.326Z,33.97
2018-12-09T20:31:54.987Z,33.90
2018-12-09T20:34:22.515Z,34.80
2018-12-09T20:36:50.212Z,33.40
2018-12-09T20:39:17.739Z,34.33
2018-12-09T20:41:45.347Z,32.50
2018-12-09T20:44:12.885Z,33.23
2018-12-09T20:46:41.209Z,33.20
2018-12-09T20:49:08.847Z,31.93
2018-12-09T20:51:36.336Z,32.33
2018-12-09T20:54:03.950Z,32.60
2018-12-09T20:56:31.463Z,30.03
2018-12-09T20:58:59.143Z,32.17
2018-12-09T21:01:26.651Z,32.13
2018-12-09T21:03:54.381Z,31.67
2018-12-09T21:06:21.891Z,30.73
2018-12-09T21:08:49.404Z,30.47
2018-12-09T21:11:16.904Z,30.13
2018-12-09T21:13:44.517Z,30.20
2018-12-09T21:16:12.357Z,29.17
2018-12-09T21:18:39.937Z,29.10
2018-12-09T21:21:08.374Z,29.47
2018-12-09T21:23:36.084Z,26.40
2018-12-09T21:26:03.745Z,28.53
2018-12-09T21:28:31.408Z,29.47
2018-12-09T21:30:58.955Z,27.03
2018-12-09T21:33:26.604Z,27.50
2018-12-09T21:35:54.815Z,27.77
2018-12-09T21:38:22.324Z,27.77
2018-12-09T21:40:49.813Z,26.50
2018-12-09T21:43:17.337Z,27.23
2018-12-09T21:45:44.828Z,25.20
2018-12-09T21:48:13.614Z,23.17
2018-12-09T21:50:41.896Z,24.50
2018-12-09T21:53:09.721Z,24.53
2018-12-09T21:55:37.744Z,24.30
2018-12-09T21:58:05.293Z,24.33
2018-12-09T22:00:33.271Z,24.13
2018-12-09T22:03:02.153Z,24.00
2018-12-09T22:05:29.696Z,24.57
2018-12-09T22:07:57.184Z,23.50
2018-12-09T22:10:24.693Z,23.80
2018-12-09T22:12:52.284Z,23.57
2018-12-09T22:15:19.804Z,22.50
2018-12-09T22:17:47.283Z,21.93
2018-12-09T22:20:15.336Z,22.93
2018-12-09T22:22:42.883Z,23.00
2018-12-09T22:25:10.393Z,22.27
2018-12-09T22:27:37.940Z,21.83
2018-12-09T22:30:05.604Z,23.00
2018-12-09T22:32:33.117Z,21.63
2018-12-09T22:35:00.683Z,22.53
2018-12-09T22:37:28.276Z,21.23
2018-12-09T22:39:55.836Z,22.83
2018-12-09T22:42:23.702Z,22.47
2018-12-09T22:44:51.678Z,21.60
2018-12-09T22:47:19.751Z,22.33
2018-12-09T22:49:47.787Z,21.50
2018-12-09T22:52:15.384Z,21.03
2018-12-09T22:54:42.900Z,21.13
2018-12-09T22:57:10.393Z,21.93
2018-12-09T22:59:37.915Z,21.53
2018-12-09T23:02:11.123Z,20.00
2018-12-09T23:04:38.632Z,20.17
2018-12-09T23:07:11.960Z,20.90
2018-12-09T23:09:39.470Z,20.47
2018-12-09T23:12:07.009Z,20.53
2018-12-09T23:14:34.544Z,19.77
2018-12-09T23:17:02.124Z,20.47
2018-12-09T23:19:29.864Z,19.37
2018-12-09T23:22:00.021Z,19.87
2018-12-09T23:24:27.580Z,19.83
2018-12-09T23:26:55.160Z,19.40
2018-12-09T23:29:22.647Z,19.73
2018-12-09T23:31:50.151Z,18.30
2018-12-09T23:34:17.647Z,18.03
2018-12-09T23:36:45.152Z,18.40
2018-12-09T23:39:12.639Z,18.47
2018-12-09T23:41:40.165Z,19.17
2018-12-09T23:44:07.747Z,18.13
2018-12-09T23:46:35.260Z,17.97
2018-12-09T23:49:02.744Z,18.73
2018-12-09T23:51:30.309Z,18.67
2018-12-09T23:53:57.814Z,18.03
2018-12-09T23:56:25.320Z,18.90
2018-12-09T23:58:52.808Z,18.17
